Hauptseite
METAR-TAF:

METAR-TAF

Flughäfen :

Wladiwostok, Russland

Flughafen Wladiwostok

Breite: 43-07N, Länge: 131-56E, Höhe: 184 m

Beobachtung

Neuester Wetterbericht von vor 18 Minuten, um 21:30 UTC
Wind 4 kt aus West/Südwest
Temperatur -20°C
Luftfeuchtigkeit 70%
Luftdruck 1029 hPa
Sichtweite: 8000 m

METAR: UHWW 252130Z 25002MPS 8000 NSC M20/M24 Q1029 R25L/0///70 NOSIG RMK QFE771

Zeit: 07:48 (21:48 UTC)

Prognose

Neuester Wetterbericht von vor 1 Stunde und 48 Minuten, um 20:00 UTC
Gültige Prognose vom 25 um 21 UTC bis 26 um 21 UTC
Wind 6 kt aus Nord
Sichtweite: 4000 m
Aufgelockert bewölkt in der Höhe von 3000 ft
trockener Dunst
Übergehend zu
vom 26 um 00 UTC bis 26 um 02 UTC
Sichtweite 10 km oder mehr
Durchbrochene Bewölkung in der Höhe von 2500 ft

TAF: UHWW 252000Z 2521/2621 36003MPS 4000 HZ SCT030 BECMG 2600/2602 9999 NSW BKN025

Wetterbeobachtungen und Prognosen von mehr als 4000 Flughäfen (METAR und TAF Bericht).

Die verfügbaren Stationen werden durch gelbe und rote Markierungen auf der Karte dargestellt.

Führen Sie die Maus auf sie, um den Namen der Station zu sehen.

Darauf klicken, um die Beobachtung von Wetterbeobachtungen und Prognosen zu sehen.

Um die Karte zu ändern : klicken Sie auf den grünen Tasten mit einem schwarzen Kreuz Zum Vergrößern, auf den grünen Button mit einem Gedankenstrich zu verkleinern, oder auf die grünen Pfeile für benachbarte Karten.


METAR-TAF: